Allerton, Illinois
Current Conditions -  °F | °C
As of 6:24 PM on Monday 24 Nov 2014 (Local Time) from KCMI Reporting Station
Overcast Overcast  
Wind Chill: 22°   Ceiling: 3000
Heat Index: 34°   Visibility: 10mi
Dew Point: 28°   Wind: 21mph
Humidity: 79%   Direction: 250°WSW
Pressure: 29.82"   Gusts: 26mph
Location:  39.91°N, 87.94°W
Report Text: KCMI 250024Z 25018G23KT 10SM BKN030 OVC035 01/M02 A2982 RMK AO2 T00111022 $
Loading
Personal Weather Stations






























Interactive Weather Map New forecast layout! Learn more

10-Day Weather Forecast

Advertisements
Track Severe Weather on mobile